sensor_id;sensor_type;location;lat;lon;timestamp;temperature;humidity
24144;DHT22;12307;50.828;6.080;2023-03-13T00:01:38;20.20;51.70
24144;DHT22;12307;50.828;6.080;2023-03-13T00:04:04;20.20;52.30
24144;DHT22;12307;50.828;6.080;2023-03-13T00:06:31;20.20;51.70
24144;DHT22;12307;50.828;6.080;2023-03-13T00:08:59;20.20;51.70
24144;DHT22;12307;50.828;6.080;2023-03-13T00:11:26;20.20;51.70
24144;DHT22;12307;50.828;6.080;2023-03-13T00:13:53;20.20;51.70
24144;DHT22;12307;50.828;6.080;2023-03-13T00:16:18;20.20;51.70
24144;DHT22;12307;50.828;6.080;2023-03-13T00:18:45;20.20;51.80
24144;DHT22;12307;50.828;6.080;2023-03-13T00:21:11;20.20;51.80
24144;DHT22;12307;50.828;6.080;2023-03-13T00:23:38;20.20;51.80
24144;DHT22;12307;50.828;6.080;2023-03-13T00:26:07;20.20;51.80
24144;DHT22;12307;50.828;6.080;2023-03-13T00:28:33;20.20;52.10
24144;DHT22;12307;50.828;6.080;2023-03-13T00:31:00;20.20;51.80
24144;DHT22;12307;50.828;6.080;2023-03-13T00:33:26;20.20;51.80
24144;DHT22;12307;50.828;6.080;2023-03-13T00:35:52;20.20;51.80
24144;DHT22;12307;50.828;6.080;2023-03-13T00:38:21;20.20;51.80
24144;DHT22;12307;50.828;6.080;2023-03-13T00:40:47;20.20;51.90
24144;DHT22;12307;50.828;6.080;2023-03-13T00:43:14;20.20;51.90
24144;DHT22;12307;50.828;6.080;2023-03-13T00:45:40;20.20;51.90
24144;DHT22;12307;50.828;6.080;2023-03-13T00:48:05;20.20;51.90
24144;DHT22;12307;50.828;6.080;2023-03-13T00:50:31;20.20;52.00
24144;DHT22;12307;50.828;6.080;2023-03-13T00:52:57;20.20;52.00
24144;DHT22;12307;50.828;6.080;2023-03-13T00:55:22;20.20;52.00
24144;DHT22;12307;50.828;6.080;2023-03-13T00:57:48;20.20;52.00
24144;DHT22;12307;50.828;6.080;2023-03-13T01:00:16;20.20;52.00
24144;DHT22;12307;50.828;6.080;2023-03-13T01:02:42;20.20;52.00
24144;DHT22;12307;50.828;6.080;2023-03-13T01:05:09;20.20;52.00
24144;DHT22;12307;50.828;6.080;2023-03-13T01:07:34;20.20;52.10
24144;DHT22;12307;50.828;6.080;2023-03-13T01:10:00;20.20;52.10
24144;DHT22;12307;50.828;6.080;2023-03-13T01:12:26;20.20;52.10
24144;DHT22;12307;50.828;6.080;2023-03-13T01:14:52;20.20;52.10
24144;DHT22;12307;50.828;6.080;2023-03-13T01:17:19;20.20;52.10
24144;DHT22;12307;50.828;6.080;2023-03-13T01:19:44;20.20;52.10
24144;DHT22;12307;50.828;6.080;2023-03-13T01:22:10;20.20;52.10
24144;DHT22;12307;50.828;6.080;2023-03-13T01:24:37;20.20;52.10
24144;DHT22;12307;50.828;6.080;2023-03-13T01:27:02;20.20;52.20
24144;DHT22;12307;50.828;6.080;2023-03-13T01:29:28;20.20;52.20
24144;DHT22;12307;50.828;6.080;2023-03-13T01:31:54;20.20;52.20
24144;DHT22;12307;50.828;6.080;2023-03-13T01:34:21;20.20;52.20
24144;DHT22;12307;50.828;6.080;2023-03-13T01:36:46;20.20;52.30
24144;DHT22;12307;50.828;6.080;2023-03-13T01:39:15;20.20;52.30
24144;DHT22;12307;50.828;6.080;2023-03-13T01:41:41;20.20;52.30
24144;DHT22;12307;50.828;6.080;2023-03-13T01:44:20;20.20;52.30
24144;DHT22;12307;50.828;6.080;2023-03-13T01:46:46;20.20;52.40
24144;DHT22;12307;50.828;6.080;2023-03-13T01:49:14;20.20;52.50
24144;DHT22;12307;50.828;6.080;2023-03-13T01:51:45;20.20;52.50
24144;DHT22;12307;50.828;6.080;2023-03-13T01:54:15;20.20;52.50
24144;DHT22;12307;50.828;6.080;2023-03-13T01:56:46;20.20;52.50
24144;DHT22;12307;50.828;6.080;2023-03-13T01:59:15;20.20;52.50
24144;DHT22;12307;50.828;6.080;2023-03-13T02:01:43;20.20;52.50
24144;DHT22;12307;50.828;6.080;2023-03-13T02:04:11;20.20;52.60
24144;DHT22;12307;50.828;6.080;2023-03-13T02:06:42;20.20;52.60
24144;DHT22;12307;50.828;6.080;2023-03-13T02:09:11;20.20;52.70
24144;DHT22;12307;50.828;6.080;2023-03-13T02:11:45;20.20;52.70
24144;DHT22;12307;50.828;6.080;2023-03-13T02:14:12;20.20;52.70
24144;DHT22;12307;50.828;6.080;2023-03-13T02:16:38;20.20;52.70
24144;DHT22;12307;50.828;6.080;2023-03-13T02:19:15;20.20;52.70
24144;DHT22;12307;50.828;6.080;2023-03-13T02:21:49;20.20;52.70
24144;DHT22;12307;50.828;6.080;2023-03-13T02:24:25;20.20;52.80
24144;DHT22;12307;50.828;6.080;2023-03-13T02:26:53;20.20;52.80
24144;DHT22;12307;50.828;6.080;2023-03-13T02:29:19;20.20;52.80
24144;DHT22;12307;50.828;6.080;2023-03-13T02:31:46;20.20;52.80
24144;DHT22;12307;50.828;6.080;2023-03-13T02:34:13;20.20;52.90
24144;DHT22;12307;50.828;6.080;2023-03-13T02:36:41;20.20;52.90
24144;DHT22;12307;50.828;6.080;2023-03-13T02:39:08;20.20;53.00
24144;DHT22;12307;50.828;6.080;2023-03-13T02:41:34;20.20;53.00
24144;DHT22;12307;50.828;6.080;2023-03-13T02:44:01;20.20;53.00
24144;DHT22;12307;50.828;6.080;2023-03-13T02:46:27;20.20;53.10
24144;DHT22;12307;50.828;6.080;2023-03-13T02:48:54;20.20;53.10
24144;DHT22;12307;50.828;6.080;2023-03-13T02:51:25;20.20;53.20
24144;DHT22;12307;50.828;6.080;2023-03-13T02:53:54;20.20;53.20
24144;DHT22;12307;50.828;6.080;2023-03-13T02:56:24;20.20;53.20
24144;DHT22;12307;50.828;6.080;2023-03-13T02:58:50;20.20;53.20
24144;DHT22;12307;50.828;6.080;2023-03-13T03:01:17;20.20;53.30
24144;DHT22;12307;50.828;6.080;2023-03-13T03:03:43;20.20;53.30
24144;DHT22;12307;50.828;6.080;2023-03-13T03:06:09;20.20;53.30
24144;DHT22;12307;50.828;6.080;2023-03-13T03:08:35;20.20;53.30
24144;DHT22;12307;50.828;6.080;2023-03-13T03:11:01;20.20;53.30
24144;DHT22;12307;50.828;6.080;2023-03-13T03:13:27;20.20;53.40
24144;DHT22;12307;50.828;6.080;2023-03-13T03:15:53;20.20;53.40
24144;DHT22;12307;50.828;6.080;2023-03-13T03:18:20;20.20;53.40
24144;DHT22;12307;50.828;6.080;2023-03-13T03:20:45;20.20;53.40
24144;DHT22;12307;50.828;6.080;2023-03-13T03:23:11;20.20;53.50
24144;DHT22;12307;50.828;6.080;2023-03-13T03:25:37;20.20;53.50
24144;DHT22;12307;50.828;6.080;2023-03-13T03:28:03;20.20;53.50
24144;DHT22;12307;50.828;6.080;2023-03-13T03:30:28;20.20;53.60
24144;DHT22;12307;50.828;6.080;2023-03-13T03:32:54;20.20;53.60
24144;DHT22;12307;50.828;6.080;2023-03-13T03:35:21;20.20;53.60
24144;DHT22;12307;50.828;6.080;2023-03-13T03:37:47;20.20;53.70
24144;DHT22;12307;50.828;6.080;2023-03-13T03:40:13;20.20;53.70
24144;DHT22;12307;50.828;6.080;2023-03-13T03:42:38;20.20;53.60
24144;DHT22;12307;50.828;6.080;2023-03-13T03:45:05;20.20;53.60
24144;DHT22;12307;50.828;6.080;2023-03-13T03:47:31;20.20;53.70
24144;DHT22;12307;50.828;6.080;2023-03-13T03:49:59;20.20;53.70
24144;DHT22;12307;50.828;6.080;2023-03-13T03:52:26;20.20;53.70
24144;DHT22;12307;50.828;6.080;2023-03-13T03:54:52;20.20;53.60
24144;DHT22;12307;50.828;6.080;2023-03-13T03:57:18;20.20;53.70
24144;DHT22;12307;50.828;6.080;2023-03-13T03:59:43;20.20;53.70
24144;DHT22;12307;50.828;6.080;2023-03-13T04:02:09;20.20;53.70
24144;DHT22;12307;50.828;6.080;2023-03-13T04:04:35;20.20;53.80
24144;DHT22;12307;50.828;6.080;2023-03-13T04:07:00;20.20;53.80
24144;DHT22;12307;50.828;6.080;2023-03-13T04:09:27;20.20;53.80
24144;DHT22;12307;50.828;6.080;2023-03-13T04:11:53;20.20;53.80
24144;DHT22;12307;50.828;6.080;2023-03-13T04:14:19;20.20;53.90
24144;DHT22;12307;50.828;6.080;2023-03-13T04:16:44;20.20;53.90
24144;DHT22;12307;50.828;6.080;2023-03-13T04:19:10;20.20;53.90
24144;DHT22;12307;50.828;6.080;2023-03-13T04:21:36;20.20;54.00
24144;DHT22;12307;50.828;6.080;2023-03-13T04:24:02;20.20;54.00
24144;DHT22;12307;50.828;6.080;2023-03-13T04:26:29;20.20;54.00
24144;DHT22;12307;50.828;6.080;2023-03-13T04:28:55;20.20;54.00
24144;DHT22;12307;50.828;6.080;2023-03-13T04:31:21;20.20;54.00
24144;DHT22;12307;50.828;6.080;2023-03-13T04:33:46;20.20;54.00
24144;DHT22;12307;50.828;6.080;2023-03-13T04:36:12;20.20;54.00
24144;DHT22;12307;50.828;6.080;2023-03-13T04:38:38;20.20;54.00
24144;DHT22;12307;50.828;6.080;2023-03-13T04:41:03;20.20;54.00
24144;DHT22;12307;50.828;6.080;2023-03-13T04:43:30;20.20;54.00
24144;DHT22;12307;50.828;6.080;2023-03-13T04:45:56;20.20;54.00
24144;DHT22;12307;50.828;6.080;2023-03-13T04:48:22;20.20;54.10
24144;DHT22;12307;50.828;6.080;2023-03-13T04:50:47;20.20;54.10
24144;DHT22;12307;50.828;6.080;2023-03-13T04:53:14;20.20;54.10
24144;DHT22;12307;50.828;6.080;2023-03-13T04:55:40;20.20;54.10
24144;DHT22;12307;50.828;6.080;2023-03-13T04:58:06;20.20;54.00
24144;DHT22;12307;50.828;6.080;2023-03-13T05:00:33;20.30;54.10
24144;DHT22;12307;50.828;6.080;2023-03-13T05:02:59;20.20;54.10
24144;DHT22;12307;50.828;6.080;2023-03-13T05:05:24;20.20;54.10
24144;DHT22;12307;50.828;6.080;2023-03-13T05:07:50;20.20;54.10
24144;DHT22;12307;50.828;6.080;2023-03-13T05:10:16;20.30;54.20
24144;DHT22;12307;50.828;6.080;2023-03-13T05:12:42;20.30;54.20
24144;DHT22;12307;50.828;6.080;2023-03-13T05:15:08;20.20;54.10
24144;DHT22;12307;50.828;6.080;2023-03-13T05:17:35;20.30;54.20
24144;DHT22;12307;50.828;6.080;2023-03-13T05:20:01;20.30;54.30
24144;DHT22;12307;50.828;6.080;2023-03-13T05:22:26;20.30;54.30
24144;DHT22;12307;50.828;6.080;2023-03-13T05:24:52;20.30;54.40
24144;DHT22;12307;50.828;6.080;2023-03-13T05:27:18;20.30;54.30
24144;DHT22;12307;50.828;6.080;2023-03-13T05:29:44;20.30;54.30
24144;DHT22;12307;50.828;6.080;2023-03-13T05:32:09;20.30;54.30
24144;DHT22;12307;50.828;6.080;2023-03-13T05:34:36;20.20;54.30
24144;DHT22;12307;50.828;6.080;2023-03-13T05:37:02;20.30;54.30
24144;DHT22;12307;50.828;6.080;2023-03-13T05:39:28;20.30;54.30
24144;DHT22;12307;50.828;6.080;2023-03-13T05:41:54;20.30;54.30
24144;DHT22;12307;50.828;6.080;2023-03-13T05:44:19;20.30;54.30
24144;DHT22;12307;50.828;6.080;2023-03-13T05:46:45;20.30;54.20
24144;DHT22;12307;50.828;6.080;2023-03-13T05:49:11;20.30;54.30
24144;DHT22;12307;50.828;6.080;2023-03-13T05:51:38;20.30;54.30
24144;DHT22;12307;50.828;6.080;2023-03-13T05:54:04;20.30;54.30
24144;DHT22;12307;50.828;6.080;2023-03-13T05:56:29;20.30;54.30
24144;DHT22;12307;50.828;6.080;2023-03-13T05:58:55;20.30;54.30
24144;DHT22;12307;50.828;6.080;2023-03-13T06:01:21;20.30;54.30
24144;DHT22;12307;50.828;6.080;2023-03-13T06:03:46;20.30;54.30
24144;DHT22;12307;50.828;6.080;2023-03-13T06:06:12;20.30;54.30
24144;DHT22;12307;50.828;6.080;2023-03-13T06:08:39;20.30;54.40
24144;DHT22;12307;50.828;6.080;2023-03-13T06:11:05;20.30;54.40
24144;DHT22;12307;50.828;6.080;2023-03-13T06:13:31;20.30;54.40
24144;DHT22;12307;50.828;6.080;2023-03-13T06:15:57;20.30;54.40
24144;DHT22;12307;50.828;6.080;2023-03-13T06:18:23;20.30;54.40
24144;DHT22;12307;50.828;6.080;2023-03-13T06:20:54;20.30;54.40
24144;DHT22;12307;50.828;6.080;2023-03-13T06:23:20;20.30;54.40
24144;DHT22;12307;50.828;6.080;2023-03-13T06:25:47;20.30;54.40
24144;DHT22;12307;50.828;6.080;2023-03-13T06:28:13;20.30;54.40
24144;DHT22;12307;50.828;6.080;2023-03-13T06:30:39;20.30;55.00
24144;DHT22;12307;50.828;6.080;2023-03-13T06:33:04;20.30;54.40
24144;DHT22;12307;50.828;6.080;2023-03-13T06:35:30;20.30;54.40
24144;DHT22;12307;50.828;6.080;2023-03-13T06:37:56;20.30;54.40
24144;DHT22;12307;50.828;6.080;2023-03-13T06:40:21;20.30;54.40
24144;DHT22;12307;50.828;6.080;2023-03-13T06:42:48;20.40;54.40
24144;DHT22;12307;50.828;6.080;2023-03-13T06:45:14;20.40;54.40
24144;DHT22;12307;50.828;6.080;2023-03-13T06:47:40;20.40;54.40
24144;DHT22;12307;50.828;6.080;2023-03-13T06:50:07;20.40;55.00
24144;DHT22;12307;50.828;6.080;2023-03-13T06:52:32;20.40;54.40
24144;DHT22;12307;50.828;6.080;2023-03-13T06:54:58;20.40;54.40
24144;DHT22;12307;50.828;6.080;2023-03-13T06:57:25;20.40;54.50
24144;DHT22;12307;50.828;6.080;2023-03-13T06:59:52;20.40;54.40
24144;DHT22;12307;50.828;6.080;2023-03-13T07:02:18;20.40;54.40
24144;DHT22;12307;50.828;6.080;2023-03-13T07:04:44;20.40;54.40
24144;DHT22;12307;50.828;6.080;2023-03-13T07:07:10;20.50;54.40
24144;DHT22;12307;50.828;6.080;2023-03-13T07:09:36;20.50;54.40
24144;DHT22;12307;50.828;6.080;2023-03-13T07:12:02;20.50;54.30
24144;DHT22;12307;50.828;6.080;2023-03-13T07:14:29;20.50;54.30
24144;DHT22;12307;50.828;6.080;2023-03-13T07:16:57;20.60;54.30
24144;DHT22;12307;50.828;6.080;2023-03-13T07:19:23;20.60;54.20
24144;DHT22;12307;50.828;6.080;2023-03-13T07:21:49;20.60;54.20
24144;DHT22;12307;50.828;6.080;2023-03-13T07:24:17;20.60;54.20
24144;DHT22;12307;50.828;6.080;2023-03-13T07:26:42;20.60;54.20
24144;DHT22;12307;50.828;6.080;2023-03-13T07:29:08;20.70;54.20
24144;DHT22;12307;50.828;6.080;2023-03-13T07:31:34;20.70;54.20
24144;DHT22;12307;50.828;6.080;2023-03-13T07:34:01;20.70;54.20
24144;DHT22;12307;50.828;6.080;2023-03-13T07:36:27;20.70;54.20
24144;DHT22;12307;50.828;6.080;2023-03-13T07:38:54;20.70;54.20
24144;DHT22;12307;50.828;6.080;2023-03-13T07:41:20;20.70;54.20
24144;DHT22;12307;50.828;6.080;2023-03-13T07:43:45;20.60;54.20
24144;DHT22;12307;50.828;6.080;2023-03-13T07:46:13;20.60;54.20
24144;DHT22;12307;50.828;6.080;2023-03-13T07:48:40;20.60;54.20
24144;DHT22;12307;50.828;6.080;2023-03-13T07:51:11;20.60;54.90
24144;DHT22;12307;50.828;6.080;2023-03-13T07:53:37;20.60;54.30
24144;DHT22;12307;50.828;6.080;2023-03-13T07:56:04;20.60;54.40
24144;DHT22;12307;50.828;6.080;2023-03-13T07:58:32;20.60;54.40
24144;DHT22;12307;50.828;6.080;2023-03-13T08:00:58;20.60;54.40
24144;DHT22;12307;50.828;6.080;2023-03-13T08:03:24;20.60;54.40
24144;DHT22;12307;50.828;6.080;2023-03-13T08:05:57;20.60;54.40
24144;DHT22;12307;50.828;6.080;2023-03-13T08:08:24;20.60;54.50
24144;DHT22;12307;50.828;6.080;2023-03-13T08:10:50;20.60;54.50
24144;DHT22;12307;50.828;6.080;2023-03-13T08:13:16;20.60;54.40
24144;DHT22;12307;50.828;6.080;2023-03-13T08:15:41;20.60;54.40
24144;DHT22;12307;50.828;6.080;2023-03-13T08:18:07;20.60;54.40
24144;DHT22;12307;50.828;6.080;2023-03-13T08:20:33;20.60;54.40
24144;DHT22;12307;50.828;6.080;2023-03-13T08:22:59;20.60;54.50
24144;DHT22;12307;50.828;6.080;2023-03-13T08:25:26;20.60;54.40
24144;DHT22;12307;50.828;6.080;2023-03-13T08:27:51;20.60;54.40
24144;DHT22;12307;50.828;6.080;2023-03-13T08:30:17;20.60;54.50
24144;DHT22;12307;50.828;6.080;2023-03-13T08:32:43;20.60;54.50
24144;DHT22;12307;50.828;6.080;2023-03-13T08:35:09;20.60;54.50
24144;DHT22;12307;50.828;6.080;2023-03-13T08:37:35;20.60;54.50
24144;DHT22;12307;50.828;6.080;2023-03-13T08:40:00;20.70;54.60
24144;DHT22;12307;50.828;6.080;2023-03-13T08:42:27;20.70;54.60
24144;DHT22;12307;50.828;6.080;2023-03-13T08:44:53;20.70;54.60
24144;DHT22;12307;50.828;6.080;2023-03-13T08:47:19;20.70;54.60
24144;DHT22;12307;50.828;6.080;2023-03-13T08:49:44;20.70;54.60
24144;DHT22;12307;50.828;6.080;2023-03-13T08:52:10;20.70;54.60
24144;DHT22;12307;50.828;6.080;2023-03-13T08:54:36;20.80;54.60
24144;DHT22;12307;50.828;6.080;2023-03-13T08:57:02;20.80;54.60
24144;DHT22;12307;50.828;6.080;2023-03-13T08:59:29;20.80;54.60
24144;DHT22;12307;50.828;6.080;2023-03-13T09:01:55;20.80;54.60
24144;DHT22;12307;50.828;6.080;2023-03-13T09:04:20;20.90;54.60
24144;DHT22;12307;50.828;6.080;2023-03-13T09:06:46;20.90;54.60
24144;DHT22;12307;50.828;6.080;2023-03-13T09:09:12;21.00;54.60
24144;DHT22;12307;50.828;6.080;2023-03-13T09:11:38;21.10;54.40
24144;DHT22;12307;50.828;6.080;2023-03-13T09:14:05;21.40;54.20
24144;DHT22;12307;50.828;6.080;2023-03-13T09:16:33;21.70;53.80
24144;DHT22;12307;50.828;6.080;2023-03-13T09:19:00;22.00;53.50
24144;DHT22;12307;50.828;6.080;2023-03-13T09:21:27;22.20;53.30
24144;DHT22;12307;50.828;6.080;2023-03-13T09:23:53;22.40;53.10
24144;DHT22;12307;50.828;6.080;2023-03-13T09:26:20;22.60;52.90
24144;DHT22;12307;50.828;6.080;2023-03-13T09:28:46;22.70;52.70
24144;DHT22;12307;50.828;6.080;2023-03-13T09:31:13;22.80;52.70
24144;DHT22;12307;50.828;6.080;2023-03-13T09:33:41;22.70;52.70
24144;DHT22;12307;50.828;6.080;2023-03-13T09:36:08;22.60;52.80
24144;DHT22;12307;50.828;6.080;2023-03-13T09:38:35;22.60;53.00
24144;DHT22;12307;50.828;6.080;2023-03-13T09:41:04;22.40;53.00
24144;DHT22;12307;50.828;6.080;2023-03-13T09:43:39;22.40;53.20
24144;DHT22;12307;50.828;6.080;2023-03-13T09:46:10;22.30;53.30
24144;DHT22;12307;50.828;6.080;2023-03-13T09:48:41;22.20;53.40
24144;DHT22;12307;50.828;6.080;2023-03-13T09:51:14;22.30;53.30
24144;DHT22;12307;50.828;6.080;2023-03-13T09:53:43;22.60;53.20
24144;DHT22;12307;50.828;6.080;2023-03-13T09:56:15;22.70;53.00
24144;DHT22;12307;50.828;6.080;2023-03-13T09:58:45;22.90;52.70
24144;DHT22;12307;50.828;6.080;2023-03-13T10:01:16;23.20;52.50
24144;DHT22;12307;50.828;6.080;2023-03-13T10:03:57;23.20;52.40
24144;DHT22;12307;50.828;6.080;2023-03-13T10:06:28;23.10;52.40
24144;DHT22;12307;50.828;6.080;2023-03-13T10:08:54;23.20;52.40
24144;DHT22;12307;50.828;6.080;2023-03-13T10:11:27;23.20;52.30
24144;DHT22;12307;50.828;6.080;2023-03-13T10:14:00;23.30;52.30
24144;DHT22;12307;50.828;6.080;2023-03-13T10:16:30;23.40;52.00
24144;DHT22;12307;50.828;6.080;2023-03-13T10:19:09;23.50;51.90
24144;DHT22;12307;50.828;6.080;2023-03-13T10:21:36;23.60;51.90
24144;DHT22;12307;50.828;6.080;2023-03-13T10:24:05;23.60;51.90
24144;DHT22;12307;50.828;6.080;2023-03-13T10:26:36;23.50;52.00
24144;DHT22;12307;50.828;6.080;2023-03-13T10:29:16;23.30;52.10
24144;DHT22;12307;50.828;6.080;2023-03-13T10:31:47;23.20;52.20
24144;DHT22;12307;50.828;6.080;2023-03-13T10:34:16;23.10;52.30
24144;DHT22;12307;50.828;6.080;2023-03-13T10:36:44;23.00;52.50
24144;DHT22;12307;50.828;6.080;2023-03-13T10:39:15;22.90;52.50
24144;DHT22;12307;50.828;6.080;2023-03-13T10:41:41;22.80;52.70
24144;DHT22;12307;50.828;6.080;2023-03-13T10:44:15;22.80;52.70
24144;DHT22;12307;50.828;6.080;2023-03-13T10:46:44;23.20;52.50
24144;DHT22;12307;50.828;6.080;2023-03-13T10:49:14;23.30;52.20
24144;DHT22;12307;50.828;6.080;2023-03-13T10:51:45;23.30;52.10
24144;DHT22;12307;50.828;6.080;2023-03-13T10:54:14;23.30;52.10
24144;DHT22;12307;50.828;6.080;2023-03-13T10:56:40;23.20;52.20
24144;DHT22;12307;50.828;6.080;2023-03-13T10:59:17;23.10;52.30
24144;DHT22;12307;50.828;6.080;2023-03-13T11:01:46;23.00;52.50
24144;DHT22;12307;50.828;6.080;2023-03-13T11:04:19;22.90;52.60
24144;DHT22;12307;50.828;6.080;2023-03-13T11:06:51;22.80;52.80
24144;DHT22;12307;50.828;6.080;2023-03-13T11:09:19;22.70;52.90
24144;DHT22;12307;50.828;6.080;2023-03-13T11:11:47;22.80;52.80
24144;DHT22;12307;50.828;6.080;2023-03-13T11:14:15;23.10;52.60
24144;DHT22;12307;50.828;6.080;2023-03-13T11:16:46;23.60;52.00
24144;DHT22;12307;50.828;6.080;2023-03-13T11:19:29;24.00;51.60
24144;DHT22;12307;50.828;6.080;2023-03-13T11:22:06;24.10;51.40
24144;DHT22;12307;50.828;6.080;2023-03-13T11:24:41;24.00;51.50
24144;DHT22;12307;50.828;6.080;2023-03-13T11:27:15;23.80;51.70
24144;DHT22;12307;50.828;6.080;2023-03-13T11:29:52;23.90;51.70
24144;DHT22;12307;50.828;6.080;2023-03-13T11:32:25;24.40;51.10
24144;DHT22;12307;50.828;6.080;2023-03-13T11:34:59;25.10;50.10
24144;DHT22;12307;50.828;6.080;2023-03-13T11:37:31;25.70;49.40
24144;DHT22;12307;50.828;6.080;2023-03-13T11:40:03;26.20;48.70
24144;DHT22;12307;50.828;6.080;2023-03-13T11:42:57;26.20;48.40
24144;DHT22;12307;50.828;6.080;2023-03-13T11:45:46;25.90;48.70
24144;DHT22;12307;50.828;6.080;2023-03-13T11:48:20;25.60;49.00
24144;DHT22;12307;50.828;6.080;2023-03-13T11:50:51;25.30;49.30
24144;DHT22;12307;50.828;6.080;2023-03-13T11:53:36;24.90;49.60
24144;DHT22;12307;50.828;6.080;2023-03-13T11:56:09;24.90;49.80
24144;DHT22;12307;50.828;6.080;2023-03-13T11:59:01;25.20;49.40
24144;DHT22;12307;50.828;6.080;2023-03-13T12:01:31;25.70;48.90
24144;DHT22;12307;50.828;6.080;2023-03-13T12:04:02;26.00;48.50
24144;DHT22;12307;50.828;6.080;2023-03-13T12:06:33;26.00;48.30
24144;DHT22;12307;50.828;6.080;2023-03-13T12:09:05;25.90;48.40
24144;DHT22;12307;50.828;6.080;2023-03-13T12:11:38;25.60;48.70
24144;DHT22;12307;50.828;6.080;2023-03-13T12:14:12;25.30;49.10
24144;DHT22;12307;50.828;6.080;2023-03-13T12:16:42;25.00;49.50
24144;DHT22;12307;50.828;6.080;2023-03-13T12:19:11;24.80;49.80
24144;DHT22;12307;50.828;6.080;2023-03-13T12:21:44;24.60;50.00
24144;DHT22;12307;50.828;6.080;2023-03-13T12:24:20;24.60;50.10
24144;DHT22;12307;50.828;6.080;2023-03-13T12:26:50;24.70;50.10
24144;DHT22;12307;50.828;6.080;2023-03-13T12:29:26;24.70;50.10
24144;DHT22;12307;50.828;6.080;2023-03-13T12:31:56;24.70;50.10
24144;DHT22;12307;50.828;6.080;2023-03-13T12:34:28;24.50;50.90
24144;DHT22;12307;50.828;6.080;2023-03-13T12:36:57;24.40;50.60
24144;DHT22;12307;50.828;6.080;2023-03-13T12:39:32;24.20;50.90
24144;DHT22;12307;50.828;6.080;2023-03-13T12:42:12;24.00;51.10
24144;DHT22;12307;50.828;6.080;2023-03-13T12:44:41;24.00;51.30
24144;DHT22;12307;50.828;6.080;2023-03-13T12:47:09;23.80;51.30
24144;DHT22;12307;50.828;6.080;2023-03-13T12:49:53;23.80;51.60
24144;DHT22;12307;50.828;6.080;2023-03-13T12:52:49;23.80;51.70
24144;DHT22;12307;50.828;6.080;2023-03-13T12:58:17;23.60;51.80
24144;DHT22;12307;50.828;6.080;2023-03-13T13:00:46;23.50;51.90
24144;DHT22;12307;50.828;6.080;2023-03-13T13:03:22;23.40;52.00
24144;DHT22;12307;50.828;6.080;2023-03-13T13:06:02;23.30;52.20
24144;DHT22;12307;50.828;6.080;2023-03-13T13:08:33;23.20;52.30
24144;DHT22;12307;50.828;6.080;2023-03-13T13:17:23;23.00;52.80
24144;DHT22;12307;50.828;6.080;2023-03-13T13:19:51;22.90;52.90
24144;DHT22;12307;50.828;6.080;2023-03-13T13:22:48;22.80;53.00
24144;DHT22;12307;50.828;6.080;2023-03-13T13:25:29;22.80;53.10
24144;DHT22;12307;50.828;6.080;2023-03-13T13:28:05;22.70;53.30
24144;DHT22;12307;50.828;6.080;2023-03-13T13:30:36;22.60;53.40
24144;DHT22;12307;50.828;6.080;2023-03-13T13:33:33;22.60;53.50
24144;DHT22;12307;50.828;6.080;2023-03-13T13:36:28;22.50;53.60
24144;DHT22;12307;50.828;6.080;2023-03-13T13:38:54;22.50;53.70
24144;DHT22;12307;50.828;6.080;2023-03-13T13:44:24;22.40;53.70
24144;DHT22;12307;50.828;6.080;2023-03-13T13:46:52;22.40;53.80
24144;DHT22;12307;50.828;6.080;2023-03-13T13:49:20;22.50;53.80
24144;DHT22;12307;50.828;6.080;2023-03-13T13:52:19;22.50;53.80
24144;DHT22;12307;50.828;6.080;2023-03-13T13:54:56;22.50;53.80
24144;DHT22;12307;50.828;6.080;2023-03-13T13:57:23;22.50;54.40
24144;DHT22;12307;50.828;6.080;2023-03-13T13:59:50;22.60;53.90
24144;DHT22;12307;50.828;6.080;2023-03-13T14:02:21;22.60;53.80
24144;DHT22;12307;50.828;6.080;2023-03-13T14:05:03;22.50;53.80
24144;DHT22;12307;50.828;6.080;2023-03-13T14:10:32;22.50;54.00
24144;DHT22;12307;50.828;6.080;2023-03-13T14:13:01;22.50;54.00
24144;DHT22;12307;50.828;6.080;2023-03-13T14:15:28;22.50;54.10
24144;DHT22;12307;50.828;6.080;2023-03-13T14:17:57;22.40;54.00
24144;DHT22;12307;50.828;6.080;2023-03-13T14:20:30;22.40;54.20
24144;DHT22;12307;50.828;6.080;2023-03-13T14:22:58;22.30;54.20
24144;DHT22;12307;50.828;6.080;2023-03-13T14:25:26;22.30;54.30
24144;DHT22;12307;50.828;6.080;2023-03-13T14:27:53;22.30;54.30
24144;DHT22;12307;50.828;6.080;2023-03-13T14:30:20;22.20;54.40
24144;DHT22;12307;50.828;6.080;2023-03-13T14:32:46;22.10;55.00
24144;DHT22;12307;50.828;6.080;2023-03-13T14:35:16;22.10;54.50
24144;DHT22;12307;50.828;6.080;2023-03-13T14:37:44;22.10;54.60
24144;DHT22;12307;50.828;6.080;2023-03-13T14:40:19;22.00;54.60
24144;DHT22;12307;50.828;6.080;2023-03-13T14:42:47;22.00;54.70
24144;DHT22;12307;50.828;6.080;2023-03-13T14:45:15;21.90;54.70
24144;DHT22;12307;50.828;6.080;2023-03-13T14:47:43;21.90;54.70
24144;DHT22;12307;50.828;6.080;2023-03-13T14:50:11;21.90;54.80
24144;DHT22;12307;50.828;6.080;2023-03-13T14:52:44;21.90;54.80
24144;DHT22;12307;50.828;6.080;2023-03-13T14:55:26;21.80;54.80
24144;DHT22;12307;50.828;6.080;2023-03-13T14:57:57;21.80;54.80
24144;DHT22;12307;50.828;6.080;2023-03-13T15:00:33;21.80;54.90
24144;DHT22;12307;50.828;6.080;2023-03-13T15:03:19;21.80;54.90
24144;DHT22;12307;50.828;6.080;2023-03-13T15:05:47;21.80;54.90
24144;DHT22;12307;50.828;6.080;2023-03-13T15:08:17;21.80;55.00
24144;DHT22;12307;50.828;6.080;2023-03-13T15:10:43;21.80;54.90
24144;DHT22;12307;50.828;6.080;2023-03-13T15:13:22;21.80;54.90
24144;DHT22;12307;50.828;6.080;2023-03-13T15:15:48;21.80;54.80
24144;DHT22;12307;50.828;6.080;2023-03-13T15:18:18;21.80;54.80
24144;DHT22;12307;50.828;6.080;2023-03-13T15:20:48;21.80;54.90
24144;DHT22;12307;50.828;6.080;2023-03-13T15:23:15;21.90;54.90
24144;DHT22;12307;50.828;6.080;2023-03-13T15:25:41;21.90;54.80
24144;DHT22;12307;50.828;6.080;2023-03-13T15:28:13;21.90;54.80
24144;DHT22;12307;50.828;6.080;2023-03-13T15:30:40;21.90;54.70
24144;DHT22;12307;50.828;6.080;2023-03-13T15:33:07;21.90;54.70
24144;DHT22;12307;50.828;6.080;2023-03-13T15:35:33;22.00;54.70
24144;DHT22;12307;50.828;6.080;2023-03-13T15:38:01;22.00;54.60
24144;DHT22;12307;50.828;6.080;2023-03-13T15:40:28;22.00;54.60
24144;DHT22;12307;50.828;6.080;2023-03-13T15:42:55;22.00;54.60
24144;DHT22;12307;50.828;6.080;2023-03-13T15:45:21;21.90;54.60
24144;DHT22;12307;50.828;6.080;2023-03-13T15:47:47;21.90;54.70
24144;DHT22;12307;50.828;6.080;2023-03-13T15:50:14;21.90;54.70
24144;DHT22;12307;50.828;6.080;2023-03-13T15:52:40;21.90;54.70
24144;DHT22;12307;50.828;6.080;2023-03-13T15:55:08;21.90;54.70